Record high temperature 35.8°C Record low temperature -23.5°C Record high gust 79.6 km/h Record high average 153.6 km/h Record daily rain 37.0 mm Record low windchill -31.0°C Record high barometer 1038.4 hPa Record low barometer 980.3 hPa
Daily high pressure 1014.6 hPa Daily low pressure 1012.3 hPa Daily low windchill 12.6°C Daily high heat index 17.0°C Daily high gust speed 14.8 kmh SO Daily high average speed 5.7 kmh SO
Wetterdaten
LETZTE AKTUALISIERUNG UM: 06:30 DATUM: September 21 2018, time of next update: 06:45
Aktuelles WetterClear/Night Aktuelle Temperatur 12.8°C (55.1°F), Apparent temp 13.0°C
Höchsttemperatur (seit Mitternacht)17.0°C um: 00:25 Tiefsttemperatur (seit Mitternacht)12.6°C um: 06:18
Windgeschwindigkeit (10 Minuten )1.3 kmh (0.7 kts) Windrichtung (Dir) (10 Minuten )SE (135°)
Windchill Temperatur 12.8°C Windspitzen (letzte Std)5.1 kmh (2.7 kts) um: 06:24
Windspitzen (seit Mitternacht)14.8 kmh (8.0 kts) um: 10:29 Höchstes Windmittel / Minute (seit Mitternacht)5.7 kmh (3.1 kts) um: 03:53
Regenmenge (letzte Std)0.0 mm Regenmenge (seit Mitternacht)0.0 mm (0.00 in.)---
Regenmenge diesen Monat 18.4 mm (0.72 in.) Regenmenge seit Jahresbeginn 344.2 mm (13.55 in.)
Höchste Regenmenge pro Minute (letzte Std)0.0 mm/min Höchste Regenmenge pro Stunde (letzte 6 Std)0.0 mm/stunde
Regenmenge Gestern 0.0 mm Taupunkt 11.7°C (Wet Bulb :12.2°C )
Luftfeuchtigkeit 93 %, Humidex 15.0°C Aktueller Luftdruck (auf Meereshöhe bezogen)1012.3 hPa
Luftdrucktendenz -0.2 hPa (letzte Std) Trend (letzte 1 Std)gleichbleibend
Luftdrucktendenz (letzte 12 Std)-3.2 hPa Luftdrucktendenz (letzte 6 Std)-2.2 hPa
Maximum Soil temperature (seit Mitternacht) 18.9°C Minimum Soil temperature(seit Mitternacht)17.8°C
Current Soil temperature 18°C
Current Solar 0 W/m²
Maximum solar (seit Mitternacht) 0 W/m² Minimum solar(seit Mitternacht)0 W/m²
Current 00:00 hours of sunshine today, current sky: Nicht bestimmbar (Nachtzeit)/Dry/Clear
Sunshine hours for the year: 1166:39 hrs Sunshine hours for the month: 101:15 hrs
Current evapotranspiration rate 0.3 mm per day. Yesterday's reading 3.1

Diese Seite wurde mit aktuellen Daten einer DAVIS VP Wetterstation erstellt. Drücken Sie bitte auf "Aktualisieren" oder "neu laden" um die neuesten Daten zu erhalten.


Animated web cam image


Weather report/warning/Metars

Stuttgart-Echterdingen, Germany (EDDS) 48-41N 009-13E 391M
Sep 20, 2018 - 11:50 PM EDT / 2018.09.21 0350 UTC
Wind: Variable at 2 MPH (2 KT):0
Visibility: greater than 7 mile(s):0
Temperature: 55 F (13 C)
Dew Point: 53 F (12 C)
Relative Humidity: 93%
Pressure (altimeter): 29.91 in. Hg (1013 hPa)
ob: EDDS 210350Z VRB02KT CAVOK 13/12 Q1013
cycle: 4
Augsburg, Germany (EDMA) 48-26N 010-56E 463M
Sep 20, 2018 - 11:50 PM EDT / 2018.09.21 0350 UTC
Wind: from the SE (130 degrees) at 3 MPH (3 KT):0
Visibility: greater than 7 mile(s):0
Temperature: 53 F (12 C)
Dew Point: 51 F (11 C)
Relative Humidity: 93%
Pressure (altimeter): 29.97 in. Hg (1015 hPa)
ob: EDMA 210350Z AUTO 13003KT 9999 // NCD 12/11 Q1015
cycle: 4
Nuernberg, Germany (EDDN) 49-30N 011-03E 318M
Sep 20, 2018 - 11:50 PM EDT / 2018.09.21 0350 UTC
Wind: from the ESE (110 degrees) at 9 MPH (8 KT):0
Visibility: greater than 7 mile(s):0
Temperature: 59 F (15 C)
Dew Point: 53 F (12 C)
Relative Humidity: 82%
Pressure (altimeter): 29.91 in. Hg (1013 hPa)
ob: EDDN 210350Z 11008KT CAVOK 15/12 Q1013
cycle: 4
Berlin-Tegel, Germany (EDDT) 52-34N 013-19E 37M
Sep 20, 2018 - 11:50 PM EDT / 2018.09.21 0350 UTC
Wind: from the S (180 degrees) at 9 MPH (8 KT):0
Visibility: greater than 7 mile(s):0
Temperature: 66 F (19 C)
Dew Point: 55 F (13 C)
Relative Humidity: 68%
Pressure (altimeter): 29.80 in. Hg (1009 hPa)
ob: EDDT 210350Z 18008KT CAVOK 19/13 Q1009 NOSIG
cycle: 4
Friedrichshafen, Germany (EDNY) 47-40N 009-31E 424M
Sep 20, 2018 - 11:50 PM EDT / 2018.09.21 0350 UTC
Wind: Variable at 2 MPH (2 KT):0
Visibility: greater than 7 mile(s):0
Temperature: 51 F (11 C)
Dew Point: 51 F (11 C)
Relative Humidity: 100%
Pressure (altimeter): 29.97 in. Hg (1015 hPa)
ob: EDNY 210350Z VRB02KT CAVOK 11/11 Q1015
cycle: 4
Hamburg-Finkenwerder, Germany (EDHI) 53-32N 009-50E 13M
Sep 20, 2018 - 11:50 PM EDT / 2018.09.21 0350 UTC
Wind: from the S (190 degrees) at 9 MPH (8 KT) (direction variable):0
Visibility: greater than 7 mile(s):0
Sky conditions: partly cloudy
Temperature: 68 F (20 C)
Dew Point: 51 F (11 C)
Relative Humidity: 56%
Pressure (altimeter): 29.65 in. Hg (1004 hPa)
ob: EDHI 210350Z AUTO 19008KT 160V220 9999 // SCT240/// 20/11 Q1004
cycle: 4



Die Wetterdaten werden alle 2 Minuten gespeichert, aber die Datenübertragung findet jede Minute statt. Die beste Ansicht wird in einer Auflösung von 800 x 600 und "True colour" erzielt. Linie zeigt die relative Luftfeuchtigkeit an.

Drücken Sie bitte auf "Aktualisieren" in Ihrem Browser, um die aktuellsten Daten zu erhalten.

Klicken Sie hier, um eine Übersicht der Durchschnitts- u. Extremwerte für den Monat zu erhalten
Created by "Weather Display" software version 10.37S at this start time/date 12:46:04 19.09.2018